createdAt,value
2023-03-01T00:01:38.861Z,0.90
2023-03-01T00:04:05.675Z,3.13
2023-03-01T00:06:32.826Z,1.90
2023-03-01T00:09:00.100Z,2.80
2023-03-01T00:11:29.797Z,1.20
2023-03-01T00:13:59.281Z,1.63
2023-03-01T00:16:29.880Z,2.03
2023-03-01T00:18:57.885Z,1.13
2023-03-01T00:21:26.179Z,2.33
2023-03-01T00:23:53.737Z,2.50
2023-03-01T00:26:22.747Z,3.00
2023-03-01T00:28:50.036Z,1.80
2023-03-01T00:31:20.483Z,1.50
2023-03-01T00:33:47.841Z,2.57
2023-03-01T00:36:16.309Z,1.83
2023-03-01T00:38:45.624Z,1.97
2023-03-01T00:41:15.268Z,1.27
2023-03-01T00:43:42.202Z,1.97
2023-03-01T00:46:15.775Z,2.30
2023-03-01T00:48:43.175Z,1.07
2023-03-01T00:51:18.545Z,2.20
2023-03-01T00:53:45.950Z,1.60
2023-03-01T00:56:15.559Z,1.83
2023-03-01T00:58:43.036Z,2.20
2023-03-01T01:01:31.210Z,2.60
2023-03-01T01:04:01.009Z,2.63
2023-03-01T01:06:43.797Z,3.30
2023-03-01T01:09:18.262Z,1.67
2023-03-01T01:11:47.108Z,1.33
2023-03-01T01:14:14.518Z,1.63
2023-03-01T01:16:41.534Z,2.20
2023-03-01T01:19:08.375Z,2.83
2023-03-01T01:21:35.389Z,1.60
2023-03-01T01:24:04.684Z,1.57
2023-03-01T01:26:34.614Z,2.53
2023-03-01T01:29:02.423Z,2.50
2023-03-01T01:31:30.765Z,2.10
2023-03-01T01:33:58.486Z,1.87
2023-03-01T01:36:25.686Z,1.37
2023-03-01T01:38:52.961Z,2.10
2023-03-01T01:41:20.976Z,1.53
2023-03-01T01:43:50.901Z,2.13
2023-03-01T01:46:31.633Z,2.13
2023-03-01T01:49:08.486Z,2.30
2023-03-01T01:51:42.029Z,2.97
2023-03-01T01:54:16.878Z,1.90
2023-03-01T01:56:48.696Z,2.70
2023-03-01T01:59:16.344Z,3.03
2023-03-01T02:01:44.661Z,1.27
2023-03-01T02:04:11.550Z,2.90
2023-03-01T02:07:07.750Z,1.47
2023-03-01T02:09:35.624Z,0.83
2023-03-01T02:12:05.298Z,1.60
2023-03-01T02:14:32.110Z,1.67
2023-03-01T02:16:59.110Z,1.60
2023-03-01T02:20:09.822Z,1.77
2023-03-01T02:22:39.493Z,2.37
2023-03-01T02:25:19.881Z,2.37
2023-03-01T02:28:02.634Z,2.70
2023-03-01T02:30:30.809Z,3.27
2023-03-01T02:33:03.712Z,2.57
2023-03-01T02:35:34.868Z,1.33
2023-03-01T02:38:02.868Z,1.40
2023-03-01T02:40:31.695Z,1.47
2023-03-01T02:42:59.932Z,2.20
2023-03-01T02:45:28.603Z,2.13
2023-03-01T02:47:57.056Z,1.97
2023-03-01T02:50:53.225Z,1.17
2023-03-01T02:53:33.769Z,1.13
2023-03-01T02:56:00.685Z,1.53
2023-03-01T02:58:27.645Z,1.43
2023-03-01T03:00:54.882Z,0.57
2023-03-01T03:03:23.056Z,1.67
2023-03-01T03:05:49.949Z,1.77
2023-03-01T03:08:25.297Z,2.07
2023-03-01T03:10:52.409Z,1.57
2023-03-01T03:13:20.208Z,1.13
2023-03-01T03:15:47.142Z,0.93
2023-03-01T03:18:17.052Z,0.73
2023-03-01T03:20:45.630Z,1.23
2023-03-01T03:23:13.190Z,0.90
2023-03-01T03:25:40.648Z,1.57
2023-03-01T03:28:11.681Z,2.63
2023-03-01T03:30:40.931Z,2.17
2023-03-01T03:33:08.309Z,1.63
2023-03-01T03:35:41.358Z,2.27
2023-03-01T03:38:16.541Z,1.07
2023-03-01T03:40:46.691Z,2.00
2023-03-01T03:43:17.612Z,1.90
2023-03-01T03:45:49.395Z,2.23
2023-03-01T03:48:16.932Z,1.83
2023-03-01T03:50:50.408Z,1.43
2023-03-01T03:53:17.843Z,0.50
2023-03-01T03:55:45.591Z,1.57
2023-03-01T03:58:12.885Z,1.70
2023-03-01T04:00:43.140Z,3.23
2023-03-01T04:03:11.444Z,1.80
2023-03-01T04:05:38.916Z,1.87
2023-03-01T04:08:09.414Z,0.97
2023-03-01T04:10:42.154Z,1.00
2023-03-01T04:13:12.438Z,1.93
2023-03-01T04:15:40.041Z,1.87
2023-03-01T04:18:07.468Z,1.13
2023-03-01T04:20:36.590Z,2.33
2023-03-01T04:23:14.582Z,1.27
2023-03-01T04:25:54.975Z,1.43
2023-03-01T04:28:37.138Z,1.03
2023-03-01T04:31:16.686Z,1.83
2023-03-01T04:33:45.099Z,1.20
2023-03-01T04:36:13.482Z,1.90
2023-03-01T04:38:41.151Z,1.47
2023-03-01T04:41:10.750Z,1.23
2023-03-01T04:43:38.216Z,0.90
2023-03-01T04:46:11.166Z,1.80
2023-03-01T04:48:39.387Z,1.03
2023-03-01T04:51:07.142Z,1.87
2023-03-01T04:53:37.125Z,1.33
2023-03-01T04:56:04.794Z,1.27
2023-03-01T04:58:31.894Z,1.37
2023-03-01T05:00:58.708Z,2.07
2023-03-01T05:03:25.821Z,1.60
2023-03-01T05:05:53.723Z,2.13
2023-03-01T05:08:21.764Z,2.37
2023-03-01T05:10:55.565Z,1.50
2023-03-01T05:13:22.983Z,1.80
2023-03-01T05:15:55.944Z,1.73
2023-03-01T05:18:27.004Z,1.63
2023-03-01T05:20:57.247Z,1.63
2023-03-01T05:23:24.372Z,2.70
2023-03-01T05:25:53.344Z,0.60
2023-03-01T05:28:21.492Z,0.90
2023-03-01T05:30:48.504Z,1.50
2023-03-01T05:33:15.432Z,2.20
2023-03-01T05:35:44.062Z,0.80
2023-03-01T05:38:15.216Z,1.00
2023-03-01T05:40:44.810Z,0.80
2023-03-01T05:43:13.434Z,1.27
2023-03-01T05:45:41.668Z,1.13
2023-03-01T05:48:10.394Z,1.57
2023-03-01T05:50:40.466Z,1.60
2023-03-01T05:53:18.726Z,1.70
2023-03-01T05:55:48.426Z,1.57
2023-03-01T05:58:20.541Z,2.13
2023-03-01T06:00:48.909Z,2.37
2023-03-01T06:03:17.662Z,2.83
2023-03-01T06:05:45.305Z,1.63
2023-03-01T06:08:13.940Z,1.07
2023-03-01T06:10:40.869Z,2.67
2023-03-01T06:13:07.925Z,1.03
2023-03-01T06:15:34.790Z,2.30
2023-03-01T06:18:01.634Z,1.63
2023-03-01T06:20:29.799Z,1.67
2023-03-01T06:22:57.374Z,2.13
2023-03-01T06:25:26.340Z,2.13
2023-03-01T06:27:53.664Z,0.60
2023-03-01T06:30:22.314Z,1.33
2023-03-01T06:32:50.047Z,1.17
2023-03-01T06:35:19.077Z,1.30
2023-03-01T06:37:47.779Z,1.57
2023-03-01T06:40:16.057Z,2.00
2023-03-01T06:42:49.997Z,2.67
2023-03-01T06:45:17.755Z,2.30
2023-03-01T06:47:44.604Z,2.20
2023-03-01T06:50:12.277Z,1.43
2023-03-01T06:52:39.743Z,1.73
2023-03-01T06:55:07.144Z,1.67
2023-03-01T06:57:33.992Z,1.40
2023-03-01T07:00:08.084Z,1.07
2023-03-01T07:02:35.023Z,1.23
2023-03-01T07:05:01.929Z,1.37
2023-03-01T07:07:28.786Z,0.83
2023-03-01T07:09:55.661Z,0.67
2023-03-01T07:12:22.564Z,2.30
2023-03-01T07:14:49.445Z,1.73
2023-03-01T07:17:16.275Z,0.80
2023-03-01T07:19:43.137Z,1.17
2023-03-01T07:22:10.404Z,1.27
2023-03-01T07:24:37.236Z,1.20
2023-03-01T07:27:04.177Z,0.97
2023-03-01T07:29:31.138Z,1.23
2023-03-01T07:31:58.087Z,0.97
2023-03-01T07:34:25.096Z,0.73
2023-03-01T07:36:52.329Z,1.03
2023-03-01T07:39:19.829Z,0.93
2023-03-01T07:41:46.943Z,1.87
2023-03-01T07:44:14.026Z,2.07
2023-03-01T07:46:40.908Z,1.93
2023-03-01T07:49:07.783Z,1.20
2023-03-01T07:51:34.635Z,0.97
2023-03-01T07:54:01.482Z,1.00
2023-03-01T07:56:28.525Z,0.97
2023-03-01T07:58:55.315Z,0.40
2023-03-01T08:01:22.967Z,1.43
2023-03-01T08:03:49.888Z,0.60
2023-03-01T08:06:17.882Z,1.80
2023-03-01T08:08:45.517Z,1.80
2023-03-01T08:11:14.479Z,0.77
2023-03-01T08:13:42.015Z,1.63
2023-03-01T08:16:15.415Z,1.23
2023-03-01T08:18:43.109Z,1.30
2023-03-01T08:21:13.043Z,0.87
2023-03-01T08:23:41.106Z,1.60
2023-03-01T08:26:13.036Z,1.27
2023-03-01T08:28:40.712Z,1.60
2023-03-01T08:31:29.604Z,1.90
2023-03-01T08:34:00.505Z,1.50
2023-03-01T08:36:42.223Z,1.50
2023-03-01T08:39:11.217Z,0.83
2023-03-01T08:41:38.275Z,1.80
2023-03-01T08:44:05.883Z,1.70
2023-03-01T08:46:43.524Z,2.60
2023-03-01T08:49:16.425Z,1.43
2023-03-01T08:51:44.870Z,1.00
2023-03-01T08:54:17.460Z,3.50
2023-03-01T08:56:44.354Z,2.40
2023-03-01T08:59:12.604Z,1.27
2023-03-01T09:01:40.082Z,1.10
2023-03-01T09:04:07.384Z,1.37
2023-03-01T09:06:35.523Z,1.30
2023-03-01T09:09:03.694Z,1.73
2023-03-01T09:11:30.767Z,1.17
2023-03-01T09:13:57.634Z,1.67
2023-03-01T09:16:24.786Z,2.63
2023-03-01T09:18:54.039Z,1.70
2023-03-01T09:21:38.644Z,1.93
2023-03-01T09:24:06.690Z,1.07
2023-03-01T09:26:33.906Z,0.70
2023-03-01T09:29:01.232Z,1.87
2023-03-01T09:31:28.324Z,1.90
2023-03-01T09:33:55.900Z,1.90
2023-03-01T09:36:26.473Z,1.50
2023-03-01T09:38:56.676Z,1.27
2023-03-01T09:41:32.253Z,2.03
2023-03-01T09:44:21.128Z,2.07
2023-03-01T09:46:48.335Z,1.43
2023-03-01T09:49:42.692Z,1.57
2023-03-01T09:52:29.786Z,0.93
2023-03-01T09:54:59.593Z,1.43
2023-03-01T09:57:39.604Z,2.80
2023-03-01T10:00:09.627Z,0.90
2023-03-01T10:03:04.084Z,1.97
2023-03-01T10:05:36.048Z,1.27
2023-03-01T10:08:11.959Z,1.30
2023-03-01T10:10:40.781Z,1.17
2023-03-01T10:13:18.643Z,1.27
2023-03-01T10:15:51.156Z,1.47
2023-03-01T10:18:22.890Z,1.07
2023-03-01T10:21:13.228Z,1.30
2023-03-01T10:23:40.144Z,1.67
2023-03-01T10:26:30.265Z,1.73
2023-03-01T10:29:06.526Z,1.77
2023-03-01T10:31:49.277Z,1.20
2023-03-01T10:34:22.343Z,1.67
2023-03-01T10:36:54.237Z,1.00
2023-03-01T10:39:26.611Z,1.83
2023-03-01T10:41:58.129Z,1.03
2023-03-01T10:44:48.260Z,0.80
2023-03-01T10:47:22.872Z,1.23
2023-03-01T10:49:55.944Z,1.03
2023-03-01T10:52:26.889Z,0.73
2023-03-01T10:54:59.859Z,0.90
2023-03-01T10:57:42.517Z,0.93
2023-03-01T11:00:23.600Z,1.00
2023-03-01T11:03:02.437Z,0.83
2023-03-01T11:05:31.399Z,1.63
2023-03-01T11:08:04.125Z,1.10
2023-03-01T11:10:34.338Z,1.43
2023-03-01T11:13:17.239Z,1.03
2023-03-01T11:15:59.055Z,1.03
2023-03-01T11:18:46.276Z,1.10
2023-03-01T11:21:18.753Z,1.00
2023-03-01T11:23:47.903Z,0.87
2023-03-01T11:26:18.484Z,1.60
2023-03-01T11:28:50.396Z,1.30
2023-03-01T11:31:17.971Z,1.57
2023-03-01T11:33:53.607Z,1.20
2023-03-01T11:36:32.181Z,0.97
2023-03-01T11:39:18.651Z,0.97
2023-03-01T11:42:03.567Z,1.63
2023-03-01T11:44:39.018Z,0.80
2023-03-01T11:47:08.926Z,0.60
2023-03-01T11:50:29.233Z,0.60
2023-03-01T11:53:40.414Z,0.80
2023-03-01T11:56:35.078Z,1.00
2023-03-01T11:59:19.886Z,1.00
2023-03-01T12:01:52.375Z,0.77
2023-03-01T12:04:40.545Z,1.30
2023-03-01T12:07:18.724Z,2.30
2023-03-01T12:09:54.812Z,1.37
2023-03-01T12:12:40.008Z,0.93
2023-03-01T12:15:25.709Z,1.07
2023-03-01T12:18:00.571Z,1.07
2023-03-01T12:20:51.575Z,1.37
2023-03-01T12:23:43.126Z,1.03
2023-03-01T12:26:15.794Z,0.80
2023-03-01T12:29:07.361Z,1.57
2023-03-01T12:31:46.032Z,1.20
2023-03-01T12:34:44.414Z,1.27
2023-03-01T12:37:30.838Z,0.63
2023-03-01T12:40:34.005Z,0.77
2023-03-01T12:43:03.871Z,0.67
2023-03-01T12:45:51.450Z,1.13
2023-03-01T12:48:31.986Z,0.90
2023-03-01T12:51:03.092Z,0.93
2023-03-01T12:53:35.482Z,0.83
2023-03-01T12:56:17.938Z,1.60
2023-03-01T12:59:21.652Z,0.73
2023-03-01T13:01:51.212Z,0.77
2023-03-01T13:05:06.974Z,1.40
2023-03-01T13:08:04.171Z,1.17
2023-03-01T13:10:41.428Z,1.27
2023-03-01T13:13:23.995Z,1.03
2023-03-01T13:15:52.286Z,1.50
2023-03-01T13:18:26.673Z,0.60
2023-03-01T13:21:01.422Z,1.13
2023-03-01T13:23:34.385Z,0.73
2023-03-01T13:26:19.182Z,0.90
2023-03-01T13:28:46.041Z,0.97
2023-03-01T13:31:35.648Z,0.83
2023-03-01T13:34:08.364Z,1.10
2023-03-01T13:36:38.310Z,0.95
2023-03-01T13:39:27.313Z,0.40
2023-03-01T13:41:56.175Z,0.93
2023-03-01T13:44:36.915Z,0.73
2023-03-01T13:47:06.905Z,1.33
2023-03-01T13:49:54.482Z,0.68
2023-03-01T13:52:43.107Z,1.13
2023-03-01T13:55:15.697Z,0.85
2023-03-01T13:57:46.831Z,0.60
2023-03-01T14:00:39.607Z,0.40
2023-03-01T14:03:14.626Z,1.42
2023-03-01T14:05:44.195Z,1.38
2023-03-01T14:08:23.300Z,1.08
2023-03-01T14:11:04.301Z,0.85
2023-03-01T14:13:54.524Z,1.05
2023-03-01T14:16:43.084Z,1.02
2023-03-01T14:19:34.916Z,0.90
2023-03-01T14:22:10.795Z,0.63
2023-03-01T14:24:45.997Z,0.73
2023-03-01T14:27:14.297Z,0.90
2023-03-01T14:29:41.596Z,0.95
2023-03-01T14:32:14.238Z,1.17
2023-03-01T14:34:46.627Z,1.23
2023-03-01T14:37:21.103Z,0.75
2023-03-01T14:39:48.606Z,1.20
2023-03-01T14:42:17.580Z,1.25
2023-03-01T14:44:47.732Z,0.40
2023-03-01T14:47:29.691Z,0.83
2023-03-01T14:50:08.455Z,0.80
2023-03-01T14:52:40.901Z,0.47
2023-03-01T14:55:19.293Z,0.63
2023-03-01T14:57:50.612Z,0.90
2023-03-01T15:00:21.790Z,0.60
2023-03-01T15:02:51.626Z,0.60
2023-03-01T15:05:25.804Z,1.27
2023-03-01T15:07:53.335Z,1.07
2023-03-01T15:10:26.732Z,0.77
2023-03-01T15:12:54.376Z,0.93
2023-03-01T15:15:32.028Z,0.90
2023-03-01T15:18:02.869Z,1.20
2023-03-01T15:20:36.186Z,1.00
2023-03-01T15:23:04.531Z,0.50
2023-03-01T15:25:33.435Z,0.80
2023-03-01T15:28:03.044Z,1.13
2023-03-01T15:30:35.950Z,0.63
2023-03-01T15:33:39.225Z,0.60
2023-03-01T15:36:50.709Z,1.43
2023-03-01T15:39:29.300Z,0.63
2023-03-01T15:41:56.435Z,0.33
2023-03-01T15:44:42.738Z,2.83
2023-03-01T15:47:24.532Z,0.77
2023-03-01T15:49:55.905Z,0.60
2023-03-01T15:52:37.668Z,1.30
2023-03-01T15:55:07.616Z,1.03
2023-03-01T15:57:34.459Z,1.30
2023-03-01T16:00:01.624Z,1.00
2023-03-01T16:02:29.035Z,1.10
2023-03-01T16:04:57.503Z,0.70
2023-03-01T16:07:24.565Z,0.50
2023-03-01T16:09:51.400Z,0.50
2023-03-01T16:12:18.244Z,0.87
2023-03-01T16:14:45.130Z,1.73
2023-03-01T16:17:12.012Z,1.93
2023-03-01T16:19:39.531Z,2.07
2023-03-01T16:22:06.447Z,2.60
2023-03-01T16:24:33.376Z,1.70
2023-03-01T16:27:00.209Z,2.80
2023-03-01T16:29:27.266Z,2.17
2023-03-01T16:31:54.260Z,1.50
2023-03-01T16:34:22.837Z,1.30
2023-03-01T16:36:50.120Z,2.17
2023-03-01T16:39:17.729Z,4.03
2023-03-01T16:41:44.746Z,4.67
2023-03-01T16:44:11.720Z,4.20
2023-03-01T16:46:38.624Z,4.67
2023-03-01T16:49:05.524Z,2.17
2023-03-01T16:51:35.650Z,4.33
2023-03-01T16:54:05.484Z,9.27
2023-03-01T16:56:34.110Z,8.53
2023-03-01T16:59:04.398Z,3.43
2023-03-01T17:01:38.555Z,4.53
2023-03-01T17:04:05.820Z,3.63
2023-03-01T17:06:33.457Z,4.10
2023-03-01T17:09:00.643Z,3.53
2023-03-01T17:11:28.486Z,1.77
2023-03-01T17:13:55.334Z,3.47
2023-03-01T17:16:23.008Z,4.03
2023-03-01T17:18:50.337Z,1.43
2023-03-01T17:21:17.756Z,1.43
2023-03-01T17:23:46.305Z,1.53
2023-03-01T17:26:13.667Z,3.57
2023-03-01T17:28:40.805Z,6.57
2023-03-01T17:31:08.147Z,4.03
2023-03-01T17:33:35.668Z,4.33
2023-03-01T17:36:03.229Z,3.50
2023-03-01T17:38:30.137Z,2.17
2023-03-01T17:40:59.785Z,1.67
2023-03-01T17:43:27.251Z,2.10
2023-03-01T17:45:54.787Z,0.97
2023-03-01T17:48:21.900Z,1.43
2023-03-01T17:50:49.113Z,3.50
2023-03-01T17:53:16.196Z,4.07
2023-03-01T17:55:44.245Z,2.77
2023-03-01T17:58:14.592Z,3.63
2023-03-01T18:00:41.859Z,5.00
2023-03-01T18:03:08.671Z,5.93
2023-03-01T18:05:37.932Z,5.50
2023-03-01T18:08:05.273Z,3.27
2023-03-01T18:10:33.522Z,6.20
2023-03-01T18:13:00.486Z,2.97
2023-03-01T18:15:27.526Z,1.60
2023-03-01T18:17:54.580Z,2.63
2023-03-01T18:20:21.855Z,2.77
2023-03-01T18:22:49.387Z,2.03
2023-03-01T18:25:16.543Z,2.00
2023-03-01T18:27:43.473Z,1.80
2023-03-01T18:30:11.142Z,2.70
2023-03-01T18:32:39.693Z,2.27
2023-03-01T18:35:07.728Z,2.27
2023-03-01T18:37:34.581Z,2.83
2023-03-01T18:40:01.505Z,1.60
2023-03-01T18:42:28.351Z,1.80
2023-03-01T18:44:55.243Z,0.83
2023-03-01T18:47:22.101Z,1.87
2023-03-01T18:49:48.897Z,2.97
2023-03-01T18:52:15.758Z,3.73
2023-03-01T18:54:42.596Z,4.00
2023-03-01T18:57:09.431Z,2.90
2023-03-01T18:59:36.335Z,2.73
2023-03-01T19:02:03.286Z,2.73
2023-03-01T19:04:30.190Z,2.37
2023-03-01T19:06:57.972Z,2.30
2023-03-01T19:09:24.829Z,2.13
2023-03-01T19:11:51.620Z,2.63
2023-03-01T19:14:18.465Z,1.77
2023-03-01T19:16:45.344Z,2.70
2023-03-01T19:19:12.588Z,2.60
2023-03-01T19:21:39.467Z,2.77
2023-03-01T19:24:07.401Z,2.63
2023-03-01T19:26:34.727Z,1.97
2023-03-01T19:29:03.606Z,3.33
2023-03-01T19:31:31.300Z,3.10
2023-03-01T19:34:10.424Z,1.70
2023-03-01T19:36:43.152Z,4.03
2023-03-01T19:39:13.500Z,2.60
2023-03-01T19:41:41.169Z,2.63
2023-03-01T19:44:08.733Z,3.43
2023-03-01T19:46:36.022Z,2.00
2023-03-01T19:49:03.676Z,2.93
2023-03-01T19:51:33.450Z,3.80
2023-03-01T19:54:00.511Z,3.47
2023-03-01T19:56:27.445Z,1.40
2023-03-01T19:59:00.384Z,4.00
2023-03-01T20:01:32.901Z,3.17
2023-03-01T20:04:00.803Z,2.20
2023-03-01T20:06:30.060Z,2.63
2023-03-01T20:08:57.347Z,2.57
2023-03-01T20:11:24.391Z,4.00
2023-03-01T20:13:51.205Z,2.40
2023-03-01T20:16:19.988Z,2.97
2023-03-01T20:18:46.983Z,2.67
2023-03-01T20:21:23.623Z,3.23
2023-03-01T20:23:52.229Z,1.93
2023-03-01T20:26:20.621Z,2.63
2023-03-01T20:28:49.285Z,1.80
2023-03-01T20:31:18.906Z,2.20
2023-03-01T20:33:46.195Z,3.40
2023-03-01T20:36:13.212Z,1.93
2023-03-01T20:38:40.110Z,2.53
2023-03-01T20:41:10.635Z,2.87
2023-03-01T20:43:38.058Z,2.70
2023-03-01T20:46:06.477Z,2.20
2023-03-01T20:48:33.976Z,2.53
2023-03-01T20:51:05.294Z,2.60
2023-03-01T20:53:32.155Z,1.33
2023-03-01T20:56:07.240Z,2.57
2023-03-01T20:58:35.693Z,2.40
2023-03-01T21:01:04.538Z,3.87
2023-03-01T21:03:31.816Z,1.60
2023-03-01T21:06:00.666Z,2.63
2023-03-01T21:08:27.814Z,2.07
2023-03-01T21:10:56.484Z,2.20
2023-03-01T21:13:25.082Z,2.23
2023-03-01T21:15:57.593Z,3.33
2023-03-01T21:18:30.034Z,3.27
2023-03-01T21:21:01.950Z,1.83
2023-03-01T21:23:30.148Z,2.70
2023-03-01T21:26:04.790Z,2.30
2023-03-01T21:28:35.097Z,3.77
2023-03-01T21:31:11.154Z,2.47
2023-03-01T21:33:39.492Z,3.50
2023-03-01T21:36:09.158Z,1.97
2023-03-01T21:38:39.215Z,3.03
2023-03-01T21:41:15.188Z,3.50
2023-03-01T21:43:43.910Z,2.77
2023-03-01T21:46:19.766Z,3.13
2023-03-01T21:48:48.390Z,2.93
2023-03-01T21:51:17.841Z,1.43
2023-03-01T21:53:45.036Z,2.50
2023-03-01T21:56:17.143Z,3.70
2023-03-01T21:58:43.939Z,4.83
2023-03-01T22:01:14.260Z,4.80
2023-03-01T22:03:47.495Z,2.40
2023-03-01T22:06:25.474Z,3.33
2023-03-01T22:08:56.936Z,3.43
2023-03-01T22:11:26.250Z,6.70
2023-03-01T22:13:55.509Z,3.30
2023-03-01T22:16:28.982Z,3.43
2023-03-01T22:18:57.185Z,2.70
2023-03-01T22:21:25.230Z,2.83
2023-03-01T22:23:53.039Z,2.43
2023-03-01T22:26:46.838Z,3.30
2023-03-01T22:29:17.314Z,2.30
2023-03-01T22:31:44.344Z,2.07
2023-03-01T22:34:11.560Z,1.53
2023-03-01T22:36:41.697Z,2.97
2023-03-01T22:39:08.781Z,2.33
2023-03-01T22:41:43.354Z,3.27
2023-03-01T22:44:16.209Z,3.33
2023-03-01T22:46:44.059Z,2.50
2023-03-01T22:49:11.379Z,2.37
2023-03-01T22:51:40.381Z,4.20
2023-03-01T22:54:08.506Z,2.77
2023-03-01T22:56:37.060Z,2.80
2023-03-01T22:59:09.730Z,2.77
2023-03-01T23:01:37.896Z,1.77
2023-03-01T23:04:05.029Z,3.47
2023-03-01T23:06:32.402Z,4.00
2023-03-01T23:09:04.452Z,3.00
2023-03-01T23:11:32.306Z,3.00
2023-03-01T23:13:59.946Z,3.27
2023-03-01T23:16:27.006Z,5.10
2023-03-01T23:19:00.797Z,3.53
2023-03-01T23:21:27.861Z,3.13
2023-03-01T23:23:56.960Z,2.70
2023-03-01T23:26:26.943Z,1.80
2023-03-01T23:28:55.281Z,3.33
2023-03-01T23:31:22.559Z,2.97
2023-03-01T23:33:49.705Z,2.63
2023-03-01T23:36:22.748Z,3.67
2023-03-01T23:38:52.039Z,3.07
2023-03-01T23:41:21.935Z,4.67
2023-03-01T23:43:52.125Z,3.63
2023-03-01T23:46:21.045Z,4.77
2023-03-01T23:48:48.555Z,2.67
2023-03-01T23:51:17.817Z,3.90
2023-03-01T23:53:54.325Z,2.67
2023-03-01T23:56:41.743Z,3.50
2023-03-01T23:59:20.482Z,3.23
